createdAt,value
2018-11-13T00:02:00.392Z,35.10
2018-11-13T00:03:00.336Z,36.50
2018-11-13T00:04:00.282Z,36.10
2018-11-13T00:05:00.261Z,36.20
2018-11-13T00:06:00.252Z,35.50
2018-11-13T00:07:00.301Z,37.00
2018-11-13T00:08:00.172Z,35.70
2018-11-13T00:09:00.233Z,35.40
2018-11-13T00:10:00.117Z,34.90
2018-11-13T00:11:01.148Z,35.70
2018-11-13T00:12:00.062Z,35.40
2018-11-13T00:13:00.160Z,36.50
2018-11-13T00:13:59.996Z,36.20
2018-11-13T00:15:00.135Z,35.50
2018-11-13T00:15:59.938Z,37.40
2018-11-13T01:04:15.121Z,39.50
2018-11-13T01:05:13.464Z,37.50
2018-11-13T01:06:13.359Z,36.80
2018-11-13T01:07:13.334Z,38.50
2018-11-13T01:08:13.305Z,36.40
2018-11-13T01:09:13.275Z,38.50
2018-11-13T01:10:13.277Z,37.50
2018-11-13T01:11:13.220Z,38.10
2018-11-13T01:12:13.193Z,36.90
2018-11-13T01:13:13.154Z,37.50
2018-11-13T01:14:13.126Z,38.40
2018-11-13T01:15:13.103Z,38.40
2018-11-13T01:16:49.647Z,37.40
2018-11-13T01:17:13.065Z,36.50
2018-11-13T01:18:13.056Z,38.80
2018-11-13T01:19:15.063Z,37.50
2018-11-13T01:20:12.953Z,38.00
2018-11-13T01:21:13.046Z,37.40
2018-11-13T01:22:12.904Z,37.50
2018-11-13T01:23:12.867Z,37.10
2018-11-13T01:24:13.865Z,35.20
2018-11-13T01:25:12.811Z,35.60
2018-11-13T01:26:12.779Z,35.00
2018-11-13T01:27:19.727Z,35.20
2018-11-13T01:28:12.724Z,37.50
2018-11-13T01:29:14.718Z,36.60
2018-11-13T01:30:12.665Z,36.80
2018-11-13T01:31:12.676Z,38.30
2018-11-13T01:32:12.610Z,35.50
2018-11-13T01:33:14.641Z,36.60
2018-11-13T01:34:12.555Z,35.00
2018-11-13T01:38:14.235Z,38.00
2018-11-13T01:39:19.096Z,35.40
2018-11-13T01:40:14.149Z,35.10
2018-11-13T01:41:14.185Z,33.10
2018-11-13T01:42:14.100Z,33.90
2018-11-13T01:43:14.088Z,33.60
2018-11-13T01:44:14.037Z,33.60
2018-11-13T01:45:16.054Z,34.40
2018-11-13T01:46:13.987Z,33.00
2018-11-13T01:47:34.422Z,32.80
2018-11-13T01:48:34.381Z,32.70
2018-11-13T01:49:35.449Z,33.80
2018-11-13T01:50:34.311Z,31.90
2018-11-13T01:51:37.117Z,31.80
2018-11-13T02:09:26.535Z,31.00
2018-11-13T02:10:26.433Z,31.40
2018-11-13T02:11:26.391Z,30.10
2018-11-13T02:12:26.363Z,30.80
2018-11-13T02:13:26.440Z,29.00
2018-11-13T02:14:26.321Z,29.10
2018-11-13T02:15:26.277Z,30.00
2018-11-13T02:16:26.381Z,30.30
2018-11-13T02:17:26.224Z,30.50
2018-11-13T02:18:26.270Z,29.50
2018-11-13T02:19:26.183Z,29.90
2018-11-13T02:20:26.129Z,27.50
2018-11-13T02:21:26.178Z,27.30
2018-11-13T02:22:26.088Z,27.50
2018-11-13T02:23:26.090Z,27.40
2018-11-13T02:24:26.022Z,28.40
2018-11-13T02:25:26.001Z,27.90
2018-11-13T02:26:25.965Z,28.80
2018-11-13T02:27:25.953Z,27.80
2018-11-13T02:28:25.914Z,27.30
2018-11-13T02:29:25.961Z,25.60
2018-11-13T02:30:25.851Z,25.90
2018-11-13T02:31:26.866Z,25.60
2018-11-13T02:32:25.794Z,24.90
2018-11-13T02:33:27.795Z,25.20
2018-11-13T02:34:25.740Z,25.30
2018-11-13T02:35:27.844Z,24.50
2018-11-13T02:37:43.257Z,26.20
2018-11-13T02:38:43.294Z,24.70
2018-11-13T02:39:43.182Z,25.50
2018-11-13T02:40:44.234Z,24.40
2018-11-13T02:41:43.120Z,24.80
2018-11-13T02:42:43.123Z,24.60
2018-11-13T02:43:43.067Z,24.60
2018-11-13T02:44:55.009Z,25.60
2018-11-13T02:45:43.015Z,25.90
2018-11-13T02:46:45.112Z,24.90
2018-11-13T02:47:42.996Z,24.10
2018-11-13T02:48:43.072Z,24.50
2018-11-13T02:49:42.902Z,23.70
2018-11-13T02:50:42.966Z,23.60
2018-11-13T02:51:42.830Z,25.20
2018-11-13T02:57:23.141Z,24.70
2018-11-13T02:58:18.771Z,24.10
2018-11-13T02:59:23.581Z,23.40
2018-11-13T03:00:18.714Z,23.30
2018-11-13T03:01:19.705Z,24.50
2018-11-13T03:02:18.653Z,24.00
2018-11-13T03:03:25.648Z,24.10
2018-11-13T03:04:18.620Z,24.70
2018-11-13T03:05:25.661Z,24.30
2018-11-13T03:06:18.537Z,23.70
2018-11-13T03:07:20.538Z,23.10
2018-11-13T03:09:36.489Z,24.40
2018-11-13T03:10:37.561Z,24.00
2018-11-13T03:11:36.407Z,23.60
2018-11-13T03:12:36.450Z,23.70
2018-11-13T03:13:36.359Z,24.10
2018-11-13T03:14:36.349Z,22.60
2018-11-13T03:15:36.304Z,24.20
2018-11-13T03:16:36.265Z,22.50
2018-11-13T03:17:36.255Z,23.70
2018-11-13T03:18:36.212Z,22.60
2018-11-13T03:19:36.179Z,23.10
2018-11-13T03:20:36.155Z,23.70
2018-11-13T03:21:36.120Z,24.20
2018-11-13T03:22:36.201Z,23.40
2018-11-13T03:23:36.057Z,23.10
2018-11-13T03:24:36.033Z,22.20
2018-11-13T03:25:36.005Z,22.00
2018-11-13T03:26:38.077Z,23.30
2018-11-13T03:27:35.947Z,22.50
2018-11-13T03:28:35.919Z,23.50
2018-11-13T03:29:35.942Z,23.60
2018-11-13T03:30:35.858Z,23.40
2018-11-13T03:31:36.149Z,22.50
2018-11-13T03:32:35.817Z,24.60
2018-11-13T03:33:57.854Z,22.40
2018-11-13T03:34:35.747Z,23.40
2018-11-13T03:36:08.718Z,23.60
2018-11-13T03:36:35.695Z,22.90
2018-11-13T03:37:35.649Z,22.70
2018-11-13T04:07:07.131Z,18.60
2018-11-13T04:08:07.078Z,17.40
2018-11-13T04:09:11.807Z,16.40
2018-11-13T04:10:07.043Z,15.90
2018-11-13T04:11:07.109Z,15.20
2018-11-13T04:12:06.972Z,16.80
2018-11-13T04:13:07.032Z,16.20
2018-11-13T04:14:07.017Z,16.10
2018-11-13T04:15:07.960Z,16.10
2018-11-13T04:16:06.848Z,16.50
2018-11-13T04:17:06.813Z,17.60
2018-11-13T04:18:07.921Z,17.30
2018-11-13T04:23:56.172Z,15.50
2018-11-13T04:24:55.032Z,15.20
2018-11-13T04:25:55.042Z,16.30
2018-11-13T04:26:54.972Z,14.90
2018-11-13T04:28:05.692Z,15.80
2018-11-13T04:28:54.916Z,15.90
2018-11-13T04:29:54.952Z,15.00
2018-11-13T04:30:54.949Z,14.70
2018-11-13T04:31:54.825Z,15.50
2018-11-13T04:32:54.810Z,16.10
2018-11-13T04:33:54.883Z,15.80
2018-11-13T04:36:12.261Z,14.80
2018-11-13T04:37:12.222Z,15.30
2018-11-13T04:38:13.237Z,15.70
2018-11-13T04:39:12.195Z,15.90
2018-11-13T04:40:13.250Z,15.70
2018-11-13T04:41:12.112Z,15.80
2018-11-13T04:42:12.160Z,16.40
2018-11-13T04:43:12.054Z,17.10
2018-11-13T04:44:12.058Z,16.10
2018-11-13T04:45:11.995Z,17.10
2018-11-13T04:46:14.047Z,17.20
2018-11-13T04:47:11.934Z,16.90
2018-11-13T04:52:09.613Z,17.80
2018-11-13T04:53:09.655Z,16.90
2018-11-13T04:54:09.539Z,17.30
2018-11-13T04:55:10.593Z,17.40
2018-11-13T04:56:09.558Z,17.20
2018-11-13T04:57:11.523Z,16.70
2018-11-13T04:58:09.433Z,18.20
2018-11-13T04:59:09.493Z,18.10
2018-11-13T05:00:09.376Z,18.30
2018-11-13T05:01:09.399Z,16.80
2018-11-13T05:02:09.310Z,17.50
2018-11-13T05:03:10.338Z,17.50
2018-11-13T05:04:09.266Z,17.60
2018-11-13T05:05:09.319Z,18.10
2018-11-13T05:06:09.195Z,18.70
2018-11-13T05:07:10.260Z,18.60
2018-11-13T05:08:09.151Z,18.70
2018-11-13T05:09:09.254Z,18.10
2018-11-13T05:10:55.287Z,19.30
2018-11-13T05:11:55.264Z,19.00
2018-11-13T05:20:04.972Z,19.00
2018-11-13T05:21:06.050Z,17.80
2018-11-13T05:22:04.916Z,18.50
2018-11-13T05:23:06.025Z,18.50
2018-11-13T05:24:04.829Z,19.10
2018-11-13T05:25:04.843Z,18.20
2018-11-13T05:26:04.781Z,19.20
2018-11-13T05:27:05.874Z,17.90
2018-11-13T05:28:04.801Z,18.70
2018-11-13T05:28:52.605Z,21.00
2018-11-13T05:29:52.534Z,17.70
2018-11-13T06:10:24.049Z,12.50
2018-11-13T06:11:29.825Z,13.80
2018-11-13T06:12:23.982Z,13.70
2018-11-13T06:13:29.832Z,13.30
2018-11-13T06:14:23.919Z,12.20
2018-11-13T06:15:37.276Z,13.30
2018-11-13T06:16:23.907Z,12.00
2018-11-13T06:17:40.019Z,12.10
2018-11-13T06:18:23.941Z,11.40
2018-11-13T06:19:24.861Z,11.40
2018-11-13T06:20:23.747Z,11.80
2018-11-13T06:21:23.747Z,10.60
2018-11-13T06:22:23.707Z,10.10
2018-11-13T06:23:35.333Z,11.40
2018-11-13T06:24:23.632Z,10.70
2018-11-13T06:25:23.669Z,11.70
2018-11-13T06:26:23.581Z,11.20
2018-11-13T06:27:28.292Z,10.00
2018-11-13T06:28:23.523Z,11.40
2018-11-13T06:29:24.540Z,10.20
2018-11-13T06:30:23.472Z,10.70
2018-11-13T06:31:24.534Z,10.60
2018-11-13T06:32:23.404Z,9.70
2018-11-13T06:33:23.417Z,10.20
2018-11-13T06:34:23.380Z,10.10
2018-11-13T06:35:23.331Z,10.30
2018-11-13T06:36:23.295Z,9.50
2018-11-13T06:37:23.342Z,8.80
2018-11-13T06:38:23.233Z,9.60
2018-11-13T06:39:23.254Z,9.80
2018-11-13T06:40:23.191Z,8.70
2018-11-13T06:41:23.166Z,9.00
2018-11-13T06:42:23.112Z,9.50
2018-11-13T06:43:37.838Z,8.30
2018-11-13T06:44:23.056Z,8.70
2018-11-13T06:45:23.102Z,8.00
2018-11-13T06:46:23.007Z,8.00
2018-11-13T06:47:23.000Z,7.70
2018-11-13T06:48:22.938Z,8.20
2018-11-13T06:49:23.041Z,8.60
2018-11-13T06:50:22.896Z,7.70
2018-11-13T06:51:22.941Z,8.50
2018-11-13T06:52:22.837Z,7.30
2018-11-13T06:53:29.808Z,7.20
2018-11-13T06:54:22.764Z,7.20
2018-11-13T06:55:24.805Z,7.10
2018-11-13T06:56:22.707Z,6.70
2018-11-13T06:57:22.686Z,6.40
2018-11-13T06:58:23.716Z,7.10
2018-11-13T06:59:22.625Z,7.10
2018-11-13T07:00:27.301Z,6.80
2018-11-13T07:01:22.569Z,6.20
2018-11-13T07:02:28.334Z,5.90
2018-11-13T07:03:22.527Z,6.60
2018-11-13T07:04:23.569Z,6.60
2018-11-13T07:05:22.464Z,6.40
2018-11-13T07:12:08.783Z,7.30
2018-11-13T07:13:08.559Z,6.30
2018-11-13T07:14:13.371Z,6.00
2018-11-13T07:15:08.508Z,6.00
2018-11-13T07:16:08.671Z,5.70
2018-11-13T07:17:08.449Z,5.70
2018-11-13T07:21:27.571Z,11.20
2018-11-13T07:25:48.492Z,8.00
2018-11-13T07:26:48.451Z,5.80
2018-11-13T07:27:48.551Z,5.20
2018-11-13T07:28:48.389Z,5.60
2018-11-13T07:29:53.182Z,5.00
2018-11-13T07:30:48.343Z,5.30
2018-11-13T07:32:01.172Z,4.80
2018-11-13T07:32:48.280Z,5.00
2018-11-13T07:34:03.173Z,4.60
2018-11-13T07:34:48.217Z,4.50
2018-11-13T07:35:48.300Z,5.20
2018-11-13T07:36:48.184Z,4.30
2018-11-13T07:37:48.307Z,5.00
2018-11-13T07:45:48.326Z,6.40
2018-11-13T07:49:18.655Z,6.50
2018-11-13T07:50:23.511Z,4.40
2018-11-13T07:51:18.704Z,4.90
2018-11-13T07:52:18.710Z,4.40
2018-11-13T07:53:18.528Z,4.60
2018-11-13T07:54:18.496Z,4.60
2018-11-13T07:55:18.636Z,4.80
2018-11-13T07:56:18.447Z,4.60
2018-11-13T07:57:19.563Z,5.20
2018-11-13T07:58:18.395Z,4.60
2018-11-13T07:59:18.450Z,4.30
2018-11-13T08:00:18.363Z,4.30
2018-11-13T08:01:18.373Z,4.20
2018-11-13T08:02:18.285Z,4.60
2018-11-13T08:03:18.277Z,5.40
2018-11-13T08:04:18.283Z,5.60
2018-11-13T08:05:18.197Z,4.60
2018-11-13T08:07:10.200Z,6.30
2018-11-13T08:08:10.154Z,4.80
2018-11-13T08:09:10.145Z,5.20
2018-11-13T08:10:10.089Z,5.10
2018-11-13T08:11:10.071Z,5.00
2018-11-13T08:12:10.030Z,5.10
2018-11-13T08:13:10.230Z,5.00
2018-11-13T08:14:09.983Z,5.20
2018-11-13T08:15:10.019Z,5.80
2018-11-13T08:16:09.906Z,4.60
2018-11-13T08:17:09.907Z,5.10
2018-11-13T08:18:09.850Z,4.80
2018-11-13T08:19:10.965Z,4.80
2018-11-13T08:20:09.797Z,6.10
2018-11-13T08:21:10.855Z,4.90
2018-11-13T08:22:09.822Z,5.50
2018-11-13T08:23:09.720Z,5.20
2018-11-13T08:24:09.683Z,5.80
2018-11-13T08:25:09.793Z,4.80
2018-11-13T08:26:09.643Z,5.80
2018-11-13T08:27:14.577Z,5.40
2018-11-13T08:28:09.626Z,5.50
2018-11-13T08:29:10.653Z,5.50
2018-11-13T08:30:09.516Z,5.70
2018-11-13T08:31:15.068Z,5.80
2018-11-13T08:32:09.457Z,5.30
2018-11-13T08:33:09.495Z,5.80
2018-11-13T08:34:09.413Z,6.00
2018-11-13T08:35:14.010Z,6.00
2018-11-13T08:36:09.349Z,5.50
2018-11-13T08:37:09.421Z,5.90
2018-11-13T08:38:09.296Z,6.10
2018-11-13T08:39:09.328Z,6.00
2018-11-13T08:40:09.998Z,5.90
2018-11-13T08:41:10.253Z,6.00
2018-11-13T08:42:09.180Z,5.90
2018-11-13T08:43:11.193Z,6.00
2018-11-13T08:44:09.194Z,5.70
2018-11-13T08:45:14.177Z,6.10
2018-11-13T08:46:09.069Z,6.20
2018-11-13T08:47:15.123Z,5.40
2018-11-13T08:48:09.010Z,5.70
2018-11-13T08:49:09.182Z,5.90
2018-11-13T08:50:09.041Z,5.10
2018-11-13T08:51:10.124Z,5.40
2018-11-13T08:52:08.941Z,5.20
2018-11-13T08:53:09.005Z,5.10
2018-11-13T08:54:08.844Z,5.70
2018-11-13T08:55:08.921Z,4.60
2018-11-13T08:56:08.789Z,4.30
2018-11-13T08:57:09.854Z,5.10
2018-11-13T08:58:08.767Z,5.30
2018-11-13T08:59:08.837Z,4.80
2018-11-13T09:00:08.679Z,4.80
2018-11-13T09:01:09.673Z,4.90
2018-11-13T09:02:08.619Z,4.70
2018-11-13T09:03:09.707Z,5.20
2018-11-13T09:04:08.564Z,5.10
2018-11-13T09:05:09.654Z,4.90
2018-11-13T09:06:08.519Z,5.30
2018-11-13T09:07:08.580Z,4.60
2018-11-13T09:08:08.491Z,5.10
2018-11-13T09:09:08.492Z,4.40
2018-11-13T09:10:08.407Z,5.30
2018-11-13T09:11:08.712Z,4.80
2018-11-13T09:12:08.406Z,5.50
2018-11-13T09:13:09.351Z,4.70
2018-11-13T09:14:08.304Z,5.30
2018-11-13T09:15:08.325Z,4.40
2018-11-13T09:16:08.230Z,4.20
2018-11-13T09:17:08.242Z,4.10
2018-11-13T09:18:08.234Z,4.20
2018-11-13T09:19:54.616Z,5.10
2018-11-13T09:20:54.645Z,4.50
2018-11-13T09:21:54.590Z,4.10
2018-11-13T09:22:54.599Z,4.50
2018-11-13T09:23:54.474Z,4.20
2018-11-13T09:24:54.463Z,3.80
2018-11-13T09:25:54.428Z,3.70
2018-11-13T09:26:54.478Z,4.00
2018-11-13T09:27:54.363Z,4.10
2018-11-13T09:28:54.394Z,4.30
2018-11-13T09:29:54.396Z,4.60
2018-11-13T09:30:54.665Z,3.90
2018-11-13T09:31:54.394Z,3.80
2018-11-13T09:32:54.355Z,4.40
2018-11-13T09:33:54.202Z,3.60
2018-11-13T09:34:54.219Z,3.80
2018-11-13T09:35:54.271Z,4.20
2018-11-13T09:36:54.130Z,4.00
2018-11-13T09:37:54.092Z,3.80
2018-11-13T09:38:55.168Z,4.20
2018-11-13T09:39:54.027Z,4.40
2018-11-13T09:40:54.064Z,4.20
2018-11-13T09:41:54.171Z,3.80
2018-11-13T09:42:55.263Z,3.90
2018-11-13T09:43:53.932Z,4.00
2018-11-13T09:44:54.047Z,3.90
2018-11-13T09:45:53.881Z,4.50
2018-11-13T09:46:53.878Z,4.30
2018-11-13T09:47:53.879Z,4.20
2018-11-13T09:48:53.817Z,4.10
2018-11-13T09:49:53.747Z,4.50
2018-11-13T09:50:53.812Z,4.50
2018-11-13T09:51:53.692Z,4.70
2018-11-13T09:52:53.723Z,4.00
2018-11-13T09:53:53.635Z,3.70
2018-11-13T09:54:58.447Z,3.90
2018-11-13T09:55:53.578Z,4.40
2018-11-13T09:56:54.589Z,3.60
2018-11-13T09:57:53.513Z,4.30
2018-11-13T09:58:53.569Z,3.70
2018-11-13T09:59:53.493Z,3.50
2018-11-13T10:00:53.759Z,4.10
2018-11-13T10:01:53.948Z,3.30
2018-11-13T10:02:54.081Z,3.80
2018-11-13T10:03:53.813Z,3.60
2018-11-13T10:04:54.288Z,3.20
2018-11-13T10:05:53.374Z,3.70
2018-11-13T10:06:53.378Z,3.60
2018-11-13T10:07:53.243Z,4.00
2018-11-13T10:08:53.310Z,3.60
2018-11-13T10:09:53.182Z,3.80
2018-11-13T10:10:53.225Z,3.50
2018-11-13T10:11:53.127Z,3.20
2018-11-13T10:12:53.128Z,3.20
2018-11-13T10:13:53.078Z,2.80
2018-11-13T10:14:53.145Z,3.10
2018-11-13T10:15:53.010Z,4.90
2018-11-13T10:16:53.058Z,3.20
2018-11-13T10:17:53.112Z,2.90
2018-11-13T10:18:52.969Z,3.00
2018-11-13T10:19:52.906Z,3.10
2018-11-13T10:20:52.979Z,3.10
2018-11-13T10:21:52.844Z,3.00
2018-11-13T10:22:52.894Z,2.80
2018-11-13T10:23:52.794Z,2.90
2018-11-13T10:24:52.812Z,2.80
2018-11-13T10:25:52.738Z,2.80
2018-11-13T10:26:52.820Z,2.60
2018-11-13T10:27:52.672Z,2.40
2018-11-13T10:28:52.735Z,2.70
2018-11-13T10:29:52.630Z,2.70
2018-11-13T10:30:52.639Z,2.80
2018-11-13T10:31:52.594Z,2.90
2018-11-13T10:32:53.542Z,3.00
2018-11-13T10:33:52.512Z,3.30
2018-11-13T10:34:52.580Z,3.60
2018-11-13T10:35:52.454Z,3.40
2018-11-13T10:36:54.531Z,3.30
2018-11-13T10:37:52.404Z,3.10
2018-11-13T10:38:52.486Z,3.00
2018-11-13T10:39:52.362Z,2.60
2018-11-13T10:40:52.388Z,3.00
2018-11-13T10:41:52.287Z,3.10
2018-11-13T10:42:54.370Z,2.90
2018-11-13T10:43:52.232Z,3.20
2018-11-13T10:44:53.238Z,3.20
2018-11-13T10:45:52.170Z,2.60
2018-11-13T10:46:52.270Z,2.70
2018-11-13T10:47:52.112Z,3.10
2018-11-13T10:48:53.215Z,2.90
2018-11-13T10:49:52.062Z,3.10
2018-11-13T10:50:52.037Z,3.40
2018-11-13T10:51:52.093Z,3.00
2018-11-13T10:52:51.977Z,2.70
2018-11-13T10:53:52.107Z,2.90
2018-11-13T10:54:51.918Z,3.30
2018-11-13T10:55:52.022Z,5.00
2018-11-13T10:56:51.871Z,3.10
2018-11-13T10:57:51.936Z,2.80
2018-11-13T10:58:51.810Z,2.80
2018-11-13T10:59:52.869Z,3.20
2018-11-13T11:00:51.752Z,3.00
2018-11-13T11:01:51.862Z,3.00
2018-11-13T11:02:51.717Z,2.80
2018-11-13T11:03:51.779Z,2.70
2018-11-13T11:04:51.644Z,3.30
2018-11-13T11:05:51.620Z,2.90
2018-11-13T11:06:51.595Z,3.50
2018-11-13T11:07:51.715Z,2.60
2018-11-13T11:08:51.536Z,2.90
2018-11-13T11:09:51.530Z,2.90
2018-11-13T11:10:51.503Z,2.70
2018-11-13T11:11:51.474Z,3.30
2018-11-13T11:13:38.586Z,3.80
2018-11-13T11:14:39.555Z,2.90
2018-11-13T11:15:38.442Z,2.80
2018-11-13T11:16:38.547Z,3.20
2018-11-13T11:17:38.395Z,3.20
2018-11-13T11:18:38.366Z,3.50
2018-11-13T11:19:38.418Z,2.50
2018-11-13T11:20:38.518Z,2.90
2018-11-13T11:21:38.265Z,2.80
2018-11-13T11:22:39.421Z,3.00
2018-11-13T11:23:38.227Z,3.60
2018-11-13T11:24:39.369Z,3.10
2018-11-13T11:25:38.152Z,3.60
2018-11-13T11:26:38.472Z,3.20
2018-11-13T11:27:38.097Z,3.60
2018-11-13T11:28:38.066Z,3.20
2018-11-13T11:29:38.033Z,4.10
2018-11-13T11:30:38.018Z,3.20
2018-11-13T11:31:37.987Z,3.30
2018-11-13T11:32:37.949Z,3.70
2018-11-13T11:33:38.100Z,3.30
2018-11-13T11:34:37.904Z,3.80
2018-11-13T11:35:38.005Z,3.30
2018-11-13T11:36:37.843Z,4.30
2018-11-13T11:37:37.858Z,3.60
2018-11-13T11:39:29.097Z,5.30
2018-11-13T11:40:29.052Z,3.90
2018-11-13T11:42:28.788Z,3.90
2018-11-13T11:43:27.562Z,3.70
2018-11-13T11:44:27.555Z,3.70
2018-11-13T11:45:27.469Z,3.70
2018-11-13T11:46:27.454Z,3.90
2018-11-13T11:47:27.542Z,3.90
2018-11-13T11:48:27.388Z,3.70
2018-11-13T11:49:27.624Z,3.40
2018-11-13T11:50:27.333Z,3.90
2018-11-13T11:51:27.567Z,4.20
2018-11-13T11:52:27.270Z,3.70
2018-11-13T11:53:27.278Z,3.60
2018-11-13T11:54:27.240Z,4.10
2018-11-13T11:55:27.293Z,4.00
2018-11-13T11:56:27.162Z,4.20
2018-11-13T11:57:27.125Z,3.80
2018-11-13T11:58:27.107Z,4.70
2018-11-13T11:59:27.119Z,4.00
2018-11-13T12:00:27.089Z,3.90
2018-11-13T12:01:27.111Z,4.10
2018-11-13T12:02:27.000Z,4.00
2018-11-13T12:03:27.021Z,4.90
2018-11-13T12:04:26.938Z,4.50
2018-11-13T12:05:26.940Z,4.40
2018-11-13T12:06:26.875Z,4.40
2018-11-13T12:07:26.947Z,4.40
2018-11-13T12:08:26.816Z,4.20
2018-11-13T12:09:26.860Z,4.40
2018-11-13T12:10:26.763Z,4.80
2018-11-13T12:11:26.777Z,5.20
2018-11-13T12:12:26.750Z,4.40
2018-11-13T12:13:26.778Z,4.40
2018-11-13T12:14:26.658Z,3.80
2018-11-13T12:18:34.674Z,5.10
2018-11-13T12:19:34.728Z,3.00
2018-11-13T12:20:34.604Z,2.80
2018-11-13T12:21:34.618Z,3.00
2018-11-13T12:22:34.551Z,3.60
2018-11-13T12:23:34.632Z,3.50
2018-11-13T12:24:34.491Z,3.00
2018-11-13T12:25:34.596Z,2.60
2018-11-13T12:26:34.436Z,3.30
2018-11-13T12:27:34.459Z,3.40
2018-11-13T12:28:34.393Z,3.20
2018-11-13T12:29:39.385Z,3.50
2018-11-13T12:30:34.328Z,4.10
2018-11-13T12:31:34.372Z,3.60
2018-11-13T12:32:34.297Z,3.30
2018-11-13T12:33:34.294Z,3.10
2018-11-13T12:34:34.278Z,3.40
2018-11-13T12:35:34.297Z,3.30
2018-11-13T12:36:34.163Z,2.80
2018-11-13T12:37:34.209Z,3.00
2018-11-13T12:38:34.116Z,2.90
2018-11-13T12:39:34.113Z,2.90
2018-11-13T12:40:34.058Z,2.60
2018-11-13T12:41:35.046Z,3.10
2018-11-13T12:42:33.997Z,2.80
2018-11-13T12:43:34.040Z,2.60
2018-11-13T12:44:33.944Z,3.20
2018-11-13T12:45:34.462Z,2.50
2018-11-13T12:46:34.831Z,3.00
2018-11-13T12:47:33.983Z,3.00
2018-11-13T12:48:33.845Z,3.00
2018-11-13T12:49:33.908Z,3.00
2018-11-13T12:50:33.782Z,2.90
2018-11-13T12:51:33.921Z,2.80
2018-11-13T12:52:33.725Z,2.30
2018-11-13T12:53:33.840Z,2.40
2018-11-13T12:54:33.672Z,2.70
2018-11-13T12:55:33.795Z,2.40
2018-11-13T12:56:33.616Z,2.80
2018-11-13T12:57:40.405Z,2.70
2018-11-13T12:58:33.563Z,2.80
2018-11-13T12:59:40.421Z,2.50
2018-11-13T13:00:33.505Z,2.50
2018-11-13T13:01:33.508Z,2.50
2018-11-13T13:02:33.552Z,2.30
2018-11-13T13:03:33.437Z,2.70
2018-11-13T13:04:39.296Z,2.00
2018-11-13T13:05:33.384Z,2.90
2018-11-13T13:06:33.416Z,2.30
2018-11-13T13:07:33.338Z,2.50
2018-11-13T13:08:34.409Z,2.60
2018-11-13T13:09:33.269Z,2.40
2018-11-13T13:10:33.292Z,2.30
2018-11-13T13:11:33.213Z,2.40
2018-11-13T13:12:33.203Z,2.50
2018-11-13T13:13:33.179Z,2.10
2018-11-13T13:14:37.799Z,2.40
2018-11-13T13:15:33.108Z,2.20
2018-11-13T13:16:35.176Z,2.00
2018-11-13T13:17:33.059Z,2.40
2018-11-13T13:18:37.813Z,2.30
2018-11-13T13:19:32.996Z,2.10
2018-11-13T13:20:33.298Z,2.60
2018-11-13T13:21:32.948Z,2.00
2018-11-13T13:22:35.048Z,2.00
2018-11-13T13:23:32.895Z,2.00
2018-11-13T13:24:34.967Z,1.90
2018-11-13T13:25:32.850Z,2.20
2018-11-13T13:26:33.947Z,1.80
2018-11-13T13:27:32.781Z,2.20
2018-11-13T13:28:33.866Z,2.00
2018-11-13T13:29:32.754Z,2.00
2018-11-13T13:30:32.706Z,2.10
2018-11-13T13:31:32.735Z,1.90
2018-11-13T13:32:32.833Z,2.40
2018-11-13T13:33:32.635Z,2.00
2018-11-13T13:34:32.676Z,2.00
2018-11-13T13:35:32.575Z,1.90
2018-11-13T13:36:33.689Z,2.30
2018-11-13T13:37:32.528Z,1.90
2018-11-13T13:38:32.621Z,2.00
2018-11-13T13:39:32.470Z,2.60
2018-11-13T13:40:32.450Z,2.30
2018-11-13T13:41:32.453Z,2.10
2018-11-13T13:42:32.526Z,2.50
2018-11-13T13:43:32.374Z,2.10
2018-11-13T13:44:32.348Z,2.00
2018-11-13T13:45:32.303Z,1.90
2018-11-13T13:46:32.493Z,2.20
2018-11-13T13:47:32.262Z,2.40
2018-11-13T13:48:32.263Z,2.00
2018-11-13T13:49:32.202Z,2.00
2018-11-13T13:50:32.185Z,1.80
2018-11-13T13:51:32.159Z,1.90
2018-11-13T13:52:32.169Z,1.70
2018-11-13T13:53:33.211Z,2.20
2018-11-13T13:54:32.142Z,1.90
2018-11-13T13:55:32.186Z,1.80
2018-11-13T13:56:32.021Z,2.10
2018-11-13T13:57:33.136Z,2.20
2018-11-13T13:58:31.967Z,2.10
2018-11-13T13:59:32.092Z,2.10
2018-11-13T14:00:31.969Z,2.00
2018-11-13T14:01:31.890Z,1.80
2018-11-13T14:02:31.849Z,1.80
2018-11-13T14:03:31.824Z,1.90
2018-11-13T14:04:31.957Z,1.90
2018-11-13T14:05:31.778Z,2.60
2018-11-13T14:06:31.853Z,2.40
2018-11-13T14:07:31.712Z,2.20
2018-11-13T14:08:31.757Z,1.90
2018-11-13T14:09:31.795Z,1.90
2018-11-13T14:10:31.628Z,2.00
2018-11-13T14:11:31.683Z,2.30
2018-11-13T14:12:31.585Z,2.30
2018-11-13T14:13:31.557Z,1.90
2018-11-13T14:14:31.531Z,2.40
2018-11-13T14:15:31.578Z,2.00
2018-11-13T14:16:31.569Z,2.20
2018-11-13T14:17:31.557Z,2.10
2018-11-13T14:19:37.875Z,3.80
2018-11-13T14:20:37.821Z,1.90
2018-11-13T14:21:37.771Z,2.30
2018-11-13T14:22:37.754Z,1.70
2018-11-13T14:23:37.818Z,1.90
2018-11-13T14:24:37.699Z,2.00
2018-11-13T14:25:37.671Z,2.00
2018-11-13T14:26:37.645Z,2.30
2018-11-13T14:27:37.611Z,1.90
2018-11-13T14:28:37.588Z,2.10
2018-11-13T14:29:37.561Z,2.10
2018-11-13T14:30:37.535Z,1.90
2018-11-13T14:31:37.659Z,2.10
2018-11-13T14:32:37.480Z,2.10
2018-11-13T14:33:37.458Z,1.80
2018-11-13T14:34:37.420Z,1.90
2018-11-13T14:35:37.453Z,2.10
2018-11-13T14:36:37.362Z,2.10
2018-11-13T14:37:37.344Z,2.10
2018-11-13T14:38:37.329Z,2.20
2018-11-13T14:39:37.289Z,2.00
2018-11-13T14:40:37.255Z,1.90
2018-11-13T14:41:37.231Z,2.00
2018-11-13T14:42:37.212Z,2.20
2018-11-13T14:43:37.178Z,1.90
2018-11-13T14:44:37.158Z,2.20
2018-11-13T14:45:37.129Z,1.50
2018-11-13T14:46:37.349Z,1.90
2018-11-13T14:47:37.070Z,2.50
2018-11-13T14:48:37.154Z,2.00
2018-11-13T14:49:37.013Z,2.10
2018-11-13T14:50:37.033Z,2.50
2018-11-13T14:51:36.970Z,2.20
2018-11-13T14:52:36.943Z,2.20
2018-11-13T14:53:36.924Z,1.90
2018-11-13T14:54:36.874Z,2.10
2018-11-13T14:55:36.848Z,2.30
2018-11-13T14:56:36.821Z,2.10
2018-11-13T14:57:36.800Z,2.20
2018-11-13T14:58:36.770Z,2.40
2018-11-13T14:59:36.741Z,2.10
2018-11-13T15:00:36.713Z,2.00
2018-11-13T15:01:36.766Z,2.20
2018-11-13T15:02:36.658Z,2.10
2018-11-13T15:03:36.636Z,2.00
2018-11-13T15:04:36.609Z,2.20
2018-11-13T15:06:26.218Z,3.20
2018-11-13T15:07:27.599Z,3.30
2018-11-13T15:08:26.116Z,2.10
2018-11-13T15:09:26.850Z,2.20
2018-11-13T15:10:26.073Z,2.00
2018-11-13T15:11:26.038Z,2.10
2018-11-13T15:12:26.011Z,2.00
2018-11-13T15:13:26.011Z,2.70
2018-11-13T15:14:25.962Z,2.20
2018-11-13T15:15:26.098Z,2.00
2018-11-13T15:16:25.911Z,2.10
2018-11-13T15:17:25.881Z,2.20
2018-11-13T15:18:25.853Z,2.10
2018-11-13T15:19:25.827Z,2.20
2018-11-13T15:20:25.959Z,2.00
2018-11-13T15:21:25.777Z,2.20
2018-11-13T15:22:25.789Z,2.40
2018-11-13T15:23:25.722Z,1.80
2018-11-13T15:24:25.769Z,2.00
2018-11-13T15:25:25.851Z,2.10
2018-11-13T15:26:25.637Z,2.50
2018-11-13T15:27:25.628Z,2.00
2018-11-13T15:28:25.574Z,2.10
2018-11-13T15:29:25.667Z,2.30
2018-11-13T15:30:25.579Z,2.40
2018-11-13T15:31:25.501Z,2.30
2018-11-13T15:32:25.469Z,1.90
2018-11-13T15:33:25.444Z,2.00
2018-11-13T15:34:25.421Z,2.10
2018-11-13T15:35:25.389Z,2.50
2018-11-13T15:36:25.417Z,1.90
2018-11-13T15:37:25.344Z,2.00
2018-11-13T15:38:25.306Z,2.00
2018-11-13T15:39:25.292Z,2.00
2018-11-13T15:40:25.251Z,2.00
2018-11-13T15:41:25.317Z,2.00
2018-11-13T15:42:25.208Z,2.30
2018-11-13T15:43:26.252Z,2.40
2018-11-13T15:44:25.202Z,2.20
2018-11-13T15:45:25.113Z,2.00
2018-11-13T15:46:25.244Z,2.00
2018-11-13T15:47:25.091Z,2.30
2018-11-13T15:48:25.155Z,2.80
2018-11-13T15:49:25.004Z,2.30
2018-11-13T15:50:25.033Z,2.30
2018-11-13T15:51:25.128Z,2.10
2018-11-13T15:52:24.987Z,2.00
2018-11-13T15:53:24.893Z,2.00
2018-11-13T15:54:24.989Z,3.10
2018-11-13T15:55:24.840Z,2.10
2018-11-13T15:56:24.906Z,2.90
2018-11-13T15:57:24.793Z,2.70
2018-11-13T15:59:11.549Z,3.30
2018-11-13T16:00:11.323Z,2.60
2018-11-13T16:01:11.299Z,1.90
2018-11-13T16:02:11.338Z,2.20
2018-11-13T16:03:11.237Z,2.20
2018-11-13T16:04:11.237Z,2.40
2018-11-13T16:05:11.188Z,2.40
2018-11-13T16:06:11.300Z,2.60
2018-11-13T16:07:11.207Z,2.70
2018-11-13T16:08:11.305Z,2.50
2018-11-13T16:09:11.138Z,2.50
2018-11-13T16:10:11.164Z,2.20
2018-11-13T16:11:11.085Z,2.20
2018-11-13T16:12:11.014Z,2.20
2018-11-13T16:13:10.972Z,2.50
2018-11-13T16:14:10.941Z,2.00
2018-11-13T16:15:10.988Z,2.50
2018-11-13T16:16:10.888Z,2.20
2018-11-13T16:17:10.873Z,2.50
2018-11-13T16:18:10.836Z,2.10
2018-11-13T16:19:10.817Z,3.30
2018-11-13T16:20:10.792Z,2.30
2018-11-13T16:21:10.989Z,2.10
2018-11-13T16:22:10.733Z,2.00
2018-11-13T16:23:10.708Z,2.00
2018-11-13T16:24:10.680Z,2.10